KNUW/NUW METAR and TAF weather

Enter ICAO airport designator
Station Type Date Time Source
KNUW METAR 2020/07/03 14:25 UTC NOAA

KNUW 031425Z AUTO 00000KT 10SM -RA BKN024 OVC046 13/11 A3007 RMK AO2 RAB20 P0000 T01280106


Station Type Date Time Source
KNUW Decoded METAR 2020/07/03 14:25 UTC NOAA

NAS WHIDBEY ISLAND, WA, United States (KNUW) 48-21N 122-39W 8M
Jul 03, 2020 - 10:25 AM EDT / 2020.07.03 1425 UTC
Wind: Calm:0
Visibility: 10 mile(s):0
Sky conditions: overcast
Weather: light rain
Precipitation last hour: A trace
Temperature: 55.0 F (12.8 C)
Dew Point: 51.1 F (10.6 C)
Relative Humidity: 86%
Pressure (altimeter): 30.07 in. Hg (1018 hPa)
ob: KNUW 031425Z AUTO 00000KT 10SM -RA BKN024 OVC046 13/11 A3007 RMK AO2 RAB20 P0000 T01280106
cycle: 14

Station Type Date Time Source
KNUW TAF 2020/07/03 07:06 UTC NOAA

TAF TAF KNUW 0307/0407 VRB06KT 9999 VCSH SCT015 BKN030 OVC050 QNH3002INS
TEMPO 0307/0312 30008KT 8000 -SHRA BR BKN015 BKN020 OVC035
FM031200 29008KT 9999 VCSH FEW025 SCT030 OVC050 QNH3003INS
TEMPO 0312/0318 VRB06KT 8000 -RA BR OVC008
FM031800 21008KT 9999 VCSH FEW025 BKN035 BKN050 QNH3005INS
FM040100 VRB06KT 9999 BKN050 BKN120 BKN200 QNH3010INS T10/0312Z T16/0323Z FS30162

Example: see airport list